Time;durP1;ratioP1;P1;durP2;ratioP2;P2;SDS_P1;SDS_P2;PMS_P1;PMS_P2;Temp;Humidity;BMP_temperature;BMP_pressure;BME280_temperature;BME280_humidity;BME280_pressure;Samples;Min_cycle;Max_cycle;Signal;HPM_P1;HPM_P2
2023/12/26 00:01:37;;;;;;;1.30;1.20;;;11.20;99.90;;;;;;5035439;28;20483;-65
2023/12/26 00:04:03;;;;;;;1.40;1.30;;;11.20;99.90;;;;;;5035718;28;20496;-64
2023/12/26 00:06:29;;;;;;;2.72;1.42;;;11.20;99.90;;;;;;5035709;28;20494;-65
2023/12/26 00:08:54;;;;;;;2.10;1.08;;;11.20;99.90;;;;;;5035552;28;20021;-65
2023/12/26 00:11:20;;;;;;;1.67;1.20;;;11.20;99.90;;;;;;5035514;28;20136;-65
2023/12/26 00:13:45;;;;;;;1.60;1.40;;;11.20;99.90;;;;;;5035631;28;20029;-64
2023/12/26 00:16:11;;;;;;;1.42;1.33;;;11.20;99.90;;;;;;5035503;28;20502;-64
2023/12/26 00:18:37;;;;;;;1.88;1.42;;;11.20;99.90;;;;;;5035303;28;20092;-64
2023/12/26 00:21:02;;;;;;;2.55;1.20;;;11.20;99.90;;;;;;5035012;28;20042;-65
2023/12/26 00:23:28;;;;;;;1.65;1.00;;;11.20;99.90;;;;;;5035227;28;20036;-64
2023/12/26 00:25:53;;;;;;;2.40;1.50;;;11.10;99.90;;;;;;5035167;28;20025;-64
2023/12/26 00:28:19;;;;;;;1.58;1.25;;;11.10;99.90;;;;;;5035352;28;20017;-65
2023/12/26 00:30:46;;;;;;;1.67;1.38;;;11.10;99.90;;;;;;5035214;28;20120;-65
2023/12/26 00:33:11;;;;;;;1.33;1.23;;;11.10;99.90;;;;;;5035254;28;20112;-64
2023/12/26 00:35:37;;;;;;;2.00;1.83;;;11.10;99.90;;;;;;5034952;28;20057;-64
2023/12/26 00:38:02;;;;;;;2.58;1.67;;;11.10;99.90;;;;;;5035081;28;20383;-64
2023/12/26 00:40:28;;;;;;;1.73;1.45;;;11.10;99.90;;;;;;5033855;28;20075;-64
2023/12/26 00:42:54;;;;;;;3.72;1.92;;;11.00;99.90;;;;;;5034877;28;20021;-64
2023/12/26 00:45:22;;;;;;;2.47;1.73;;;11.00;99.90;;;;;;5035105;28;20032;-64
2023/12/26 00:47:49;;;;;;;2.75;1.50;;;11.00;99.90;;;;;;5034785;28;20120;-64
2023/12/26 00:50:16;;;;;;;1.55;1.45;;;11.00;99.90;;;;;;5034869;28;20578;-65
2023/12/26 00:52:42;;;;;;;1.52;1.42;;;11.00;99.90;;;;;;5034899;28;20033;-64
2023/12/26 00:55:08;;;;;;;3.35;1.63;;;10.90;99.90;;;;;;5034641;28;20029;-65
2023/12/26 00:57:34;;;;;;;1.63;1.52;;;10.90;99.90;;;;;;5034545;28;20063;-64
2023/12/26 01:00:00;;;;;;;2.20;1.95;;;10.90;99.90;;;;;;5034275;28;20074;-65
2023/12/26 01:02:26;;;;;;;1.85;1.58;;;10.90;99.90;;;;;;5033649;28;20030;-65
2023/12/26 01:04:51;;;;;;;3.28;1.85;;;10.90;99.90;;;;;;5034480;28;20124;-65
2023/12/26 01:07:17;;;;;;;2.22;1.65;;;10.90;99.90;;;;;;5034503;28;20032;-65
2023/12/26 01:09:43;;;;;;;2.20;1.60;;;10.80;99.90;;;;;;5033154;28;20468;-64
2023/12/26 01:12:09;;;;;;;2.25;1.75;;;10.80;99.90;;;;;;5034287;28;20030;-64
2023/12/26 01:14:35;;;;;;;3.47;1.70;;;10.80;99.90;;;;;;5033287;28;20398;-64
2023/12/26 01:17:01;;;;;;;1.80;1.70;;;10.80;99.90;;;;;;5034221;28;20025;-63
2023/12/26 01:19:26;;;;;;;1.60;1.50;;;10.80;99.90;;;;;;5034202;28;20025;-64
2023/12/26 01:21:52;;;;;;;2.03;1.63;;;10.80;99.90;;;;;;5033836;28;20042;-64
2023/12/26 01:24:17;;;;;;;3.28;1.48;;;10.90;99.90;;;;;;5034118;28;20021;-64
2023/12/26 01:26:43;;;;;;;3.03;1.92;;;10.90;99.90;;;;;;5033997;28;20057;-64
2023/12/26 01:29:08;;;;;;;3.75;2.00;;;11.00;99.90;;;;;;5033923;28;20021;-64
2023/12/26 01:31:36;;;;;;;2.60;1.73;;;10.60;99.90;;;;;;5033881;28;20116;-64
2023/12/26 01:34:04;;;;;;;1.77;1.60;;;10.90;99.90;;;;;;5032727;28;20071;-64
2023/12/26 01:36:29;;;;;;;3.92;1.60;;;11.20;99.90;;;;;;5034021;28;20059;-64
2023/12/26 01:38:56;;;;;;;4.03;1.50;;;10.90;99.90;;;;;;5034016;28;20053;-64
2023/12/26 01:41:22;;;;;;;1.70;1.30;;;10.80;99.90;;;;;;5032573;28;20059;-64
2023/12/26 01:43:47;;;;;;;1.75;1.10;;;10.90;99.90;;;;;;5033709;28;20112;-64
2023/12/26 01:46:13;;;;;;;2.15;1.38;;;10.90;99.90;;;;;;5033741;28;20033;-64
2023/12/26 01:48:41;;;;;;;1.92;1.20;;;10.80;99.90;;;;;;5033651;28;20025;-64
2023/12/26 01:51:11;;;;;;;2.05;1.20;;;10.80;99.90;;;;;;5033576;28;20036;-64
2023/12/26 01:53:39;;;;;;;1.42;1.10;;;10.90;99.90;;;;;;5032586;28;20029;-64
2023/12/26 01:56:08;;;;;;;1.48;1.00;;;10.80;99.90;;;;;;5033534;28;20109;-64
2023/12/26 01:58:35;;;;;;;1.50;1.10;;;11.10;99.90;;;;;;5033522;28;20037;-65
2023/12/26 02:01:03;;;;;;;1.67;0.90;;;11.20;99.90;;;;;;5033608;28;20033;-65
2023/12/26 02:03:28;;;;;;;1.23;1.05;;;10.80;99.90;;;;;;5033424;28;20030;-65
2023/12/26 02:05:55;;;;;;;1.75;1.50;;;10.80;99.90;;;;;;5033561;28;20206;-65
2023/12/26 02:08:22;;;;;;;1.40;1.13;;;;;;;;;;5033574;28;20387;-65
2023/12/26 02:10:48;;;;;;;0.85;0.85;;;;;;;;;;5033609;28;20100;-65
2023/12/26 02:13:14;;;;;;;0.88;0.88;;;;;;;;;;5033148;28;20068;-64
2023/12/26 02:15:40;;;;;;;1.13;0.90;;;11.00;99.90;;;;;;5033286;28;20056;-64
2023/12/26 02:18:06;;;;;;;1.50;1.00;;;10.90;99.90;;;;;;5033377;28;20483;-64
2023/12/26 02:20:31;;;;;;;0.85;0.82;;;10.30;99.90;;;;;;5031827;28;20053;-64
2023/12/26 02:22:58;;;;;;;0.90;0.90;;;10.70;99.90;;;;;;5033459;28;20103;-65
2023/12/26 02:25:23;;;;;;;1.90;0.90;;;10.70;99.90;;;;;;5033240;28;20419;-65
2023/12/26 02:27:49;;;;;;;1.00;0.90;;;10.70;99.90;;;;;;5033160;28;20064;-66
2023/12/26 02:30:16;;;;;;;1.85;0.80;;;10.70;99.90;;;;;;5033135;28;20117;-65
2023/12/26 02:32:43;;;;;;;0.70;0.70;;;10.70;99.90;;;;;;5032951;28;20116;-65
2023/12/26 02:35:09;;;;;;;1.63;1.02;;;10.70;99.90;;;;;;5031880;28;20025;-66
2023/12/26 02:37:37;;;;;;;1.63;0.98;;;10.70;99.90;;;;;;5032082;28;20132;-65
2023/12/26 02:40:03;;;;;;;4.57;0.95;;;;;;;;;;5033182;28;20498;-64
2023/12/26 02:42:29;;;;;;;1.25;0.80;;;10.70;99.90;;;;;;5032936;28;20079;-65
2023/12/26 02:44:56;;;;;;;1.75;0.90;;;9.90;99.90;;;;;;5033056;28;20033;-64
2023/12/26 02:47:23;;;;;;;0.75;0.75;;;;;;;;;;5033039;28;20488;-64
2023/12/26 02:49:49;;;;;;;1.05;0.65;;;;;;;;;;5032964;28;20029;-65
2023/12/26 02:52:15;;;;;;;1.38;0.90;;;10.70;99.90;;;;;;5033172;28;20524;-64
2023/12/26 02:54:40;;;;;;;2.05;0.60;;;10.60;99.90;;;;;;5032841;28;20044;-64
2023/12/26 02:57:06;;;;;;;1.67;0.73;;;10.60;99.90;;;;;;5032896;28;20030;-64
2023/12/26 02:59:33;;;;;;;0.90;0.80;;;10.60;99.90;;;;;;5032867;28;20025;-64
2023/12/26 03:02:00;;;;;;;1.27;0.80;;;;;;;;;;5031556;28;20033;-65
2023/12/26 03:04:26;;;;;;;0.85;0.73;;;10.80;99.90;;;;;;5033011;28;20030;-65
2023/12/26 03:06:53;;;;;;;1.27;1.08;;;10.40;99.90;;;;;;5032799;28;20127;-64
2023/12/26 03:09:18;;;;;;;1.85;0.70;;;10.60;99.90;;;;;;5032921;28;20025;-64
2023/12/26 03:11:44;;;;;;;0.75;0.75;;;10.20;99.90;;;;;;5032716;28;20107;-64
2023/12/26 03:14:11;;;;;;;0.70;0.70;;;9.50;99.90;;;;;;5032584;28;20036;-64
2023/12/26 03:16:37;;;;;;;2.08;0.68;;;10.60;99.90;;;;;;5032659;28;20087;-64
2023/12/26 03:19:02;;;;;;;0.63;0.60;;;10.60;99.90;;;;;;5032749;28;20427;-64
2023/12/26 03:21:29;;;;;;;1.80;0.77;;;;;;;;;;5031203;28;20042;-64
2023/12/26 03:23:55;;;;;;;0.50;0.50;;;;;;;;;;5033352;28;20510;-64
2023/12/26 03:26:22;;;;;;;0.75;0.57;;;10.50;99.90;;;;;;5036464;28;20021;-64
2023/12/26 03:28:48;;;;;;;0.80;0.70;;;;;;;;;;5036576;28;20483;-64
2023/12/26 03:31:14;;;;;;;0.88;0.80;;;10.50;99.90;;;;;;5036338;28;20442;-64
2023/12/26 03:33:39;;;;;;;2.25;0.90;;;10.50;99.90;;;;;;5036295;28;20025;-64
2023/12/26 03:36:08;;;;;;;0.80;0.80;;;10.50;99.90;;;;;;5036346;28;20088;-64
2023/12/26 03:38:36;;;;;;;0.95;0.95;;;10.50;99.90;;;;;;5036376;28;20025;-64
2023/12/26 03:41:04;;;;;;;2.17;0.95;;;10.60;99.90;;;;;;5036126;28;20040;-64
2023/12/26 03:43:32;;;;;;;0.88;0.80;;;10.50;99.90;;;;;;5036289;28;20031;-64
2023/12/26 03:45:57;;;;;;;0.90;0.90;;;10.40;99.90;;;;;;5035964;28;20036;-64
2023/12/26 03:48:25;;;;;;;1.80;1.00;;;10.50;99.90;;;;;;5036135;28;20105;-63
2023/12/26 03:50:51;;;;;;;1.40;1.10;;;10.50;99.90;;;;;;5036010;28;20029;-64
2023/12/26 03:53:16;;;;;;;1.10;1.10;;;10.50;99.90;;;;;;5035985;28;20087;-63
2023/12/26 03:55:46;;;;;;;1.17;1.08;;;10.80;99.90;;;;;;5035791;28;20033;-63
2023/12/26 03:58:12;;;;;;;1.15;1.05;;;10.50;99.90;;;;;;5035773;28;20028;-64
2023/12/26 04:00:38;;;;;;;1.80;0.93;;;;;;;;;;5035607;28;20033;-63
2023/12/26 04:03:04;;;;;;;1.48;1.05;;;;;;;;;;5035503;28;20084;-64
2023/12/26 04:05:31;;;;;;;3.33;1.00;;;;;;;;;;5035627;28;20080;-63
2023/12/26 04:07:57;;;;;;;0.75;0.75;;;10.50;99.90;;;;;;5035558;28;20079;-64
2023/12/26 04:10:22;;;;;;;1.20;1.10;;;10.50;99.90;;;;;;5035543;28;20026;-64
2023/12/26 04:12:48;;;;;;;1.58;1.10;;;10.50;99.90;;;;;;5035710;28;20387;-64
2023/12/26 04:15:16;;;;;;;1.58;1.30;;;10.50;99.90;;;;;;5035328;28;20430;-64
2023/12/26 04:17:41;;;;;;;3.22;1.60;;;10.00;99.90;;;;;;5035613;28;20025;-64
2023/12/26 04:20:07;;;;;;;2.45;1.83;;;10.50;99.90;;;;;;5035254;28;20033;-63
2023/12/26 04:22:33;;;;;;;2.83;1.75;;;10.50;99.90;;;;;;5035199;28;20030;-63
2023/12/26 04:24:58;;;;;;;3.05;1.67;;;10.50;99.90;;;;;;5035513;28;20022;-63
2023/12/26 04:27:24;;;;;;;2.55;1.95;;;10.40;99.90;;;;;;5035243;28;20063;-64
2023/12/26 04:29:49;;;;;;;2.40;2.10;;;10.40;99.90;;;;;;5035174;28;20072;-64
2023/12/26 04:32:17;;;;;;;3.55;2.03;;;10.40;99.90;;;;;;5035099;28;20083;-63
2023/12/26 04:34:43;;;;;;;7.80;3.05;;;10.40;99.90;;;;;;5034751;28;20040;-63
2023/12/26 04:37:08;;;;;;;6.57;3.53;;;10.40;99.90;;;;;;5033933;28;20395;-63
2023/12/26 04:39:34;;;;;;;6.55;3.20;;;10.40;99.90;;;;;;5034980;28;20033;-64
2023/12/26 04:41:59;;;;;;;8.50;3.78;;;10.40;99.90;;;;;;5034835;28;20373;-64
2023/12/26 04:44:25;;;;;;;4.85;3.70;;;10.40;99.90;;;;;;5034885;28;20383;-65
2023/12/26 04:46:51;;;;;;;8.98;5.25;;;10.40;99.90;;;;;;5034796;28;20052;-65
2023/12/26 04:49:17;;;;;;;4.95;4.45;;;10.40;99.90;;;;;;5033728;28;20422;-64
2023/12/26 04:51:44;;;;;;;6.90;3.80;;;10.40;99.90;;;;;;5034732;28;20109;-64
2023/12/26 04:54:10;;;;;;;6.82;3.50;;;10.40;99.90;;;;;;5034646;28;20026;-64
2023/12/26 04:56:43;;;;;;;4.82;3.15;;;10.40;99.90;;;;;;5034640;28;20022;-64
2023/12/26 04:59:08;;;;;;;4.50;2.20;;;10.30;99.90;;;;;;5034607;28;20076;-64
2023/12/26 05:01:40;;;;;;;2.42;1.83;;;10.30;99.90;;;;;;5034669;28;20034;-64
2023/12/26 05:04:06;;;;;;;1.90;1.65;;;10.30;99.90;;;;;;5033280;28;20026;-64
2023/12/26 05:06:31;;;;;;;5.07;1.90;;;10.20;99.90;;;;;;5034486;28;20387;-65
2023/12/26 05:08:57;;;;;;;2.40;2.05;;;10.20;99.90;;;;;;5034431;28;20030;-64
2023/12/26 05:11:23;;;;;;;2.67;1.60;;;10.20;99.90;;;;;;5034555;28;20068;-65
2023/12/26 05:13:50;;;;;;;3.88;1.77;;;10.20;99.90;;;;;;5033311;28;20052;-64
2023/12/26 05:16:19;;;;;;;3.90;1.92;;;10.10;99.90;;;;;;5033971;28;20029;-64
2023/12/26 05:18:46;;;;;;;4.28;1.60;;;;;;;;;;5034185;28;20407;-64
2023/12/26 05:21:19;;;;;;;5.90;1.50;;;10.20;99.90;;;;;;5033886;28;20046;-64
2023/12/26 05:23:46;;;;;;;1.90;1.42;;;;;;;;;;5032922;28;20018;-65
2023/12/26 05:26:13;;;;;;;6.13;1.45;;;10.20;99.90;;;;;;5034025;28;20384;-64
2023/12/26 05:28:38;;;;;;;3.30;1.23;;;10.20;99.90;;;;;;5034059;28;20236;-64
2023/12/26 05:31:04;;;;;;;3.30;1.40;;;10.10;99.90;;;;;;5033981;28;20499;-64
2023/12/26 05:33:30;;;;;;;2.08;1.35;;;10.20;99.90;;;;;;5033949;28;20547;-64
2023/12/26 05:35:56;;;;;;;5.15;1.40;;;10.20;99.90;;;;;;5032723;28;20026;-64
2023/12/26 05:38:22;;;;;;;3.00;1.08;;;10.10;99.90;;;;;;5033948;28;20030;-64
2023/12/26 05:40:47;;;;;;;2.25;1.30;;;10.20;99.90;;;;;;5034032;28;20053;-65
2023/12/26 05:43:13;;;;;;;3.13;1.80;;;10.10;99.90;;;;;;5033679;28;20030;-64
2023/12/26 05:45:39;;;;;;;4.75;1.80;;;10.20;99.90;;;;;;5033719;28;20029;-63
2023/12/26 05:48:06;;;;;;;2.38;1.60;;;9.80;99.90;;;;;;5033133;28;20111;-63
2023/12/26 05:50:31;;;;;;;4.05;1.60;;;10.10;99.90;;;;;;5033627;28;20029;-64
2023/12/26 05:52:57;;;;;;;5.32;1.80;;;10.10;99.90;;;;;;5033652;28;20545;-64
2023/12/26 05:55:23;;;;;;;3.13;1.65;;;10.10;99.90;;;;;;5033643;28;20053;-64
2023/12/26 05:57:48;;;;;;;4.93;2.20;;;10.00;99.90;;;;;;5033757;28;20506;-64
2023/12/26 06:00:14;;;;;;;6.00;2.17;;;10.00;99.90;;;;;;5033488;28;20535;-63
2023/12/26 06:02:40;;;;;;;8.15;1.92;;;10.00;99.90;;;;;;5032213;28;20033;-63
2023/12/26 06:05:06;;;;;;;2.80;1.73;;;9.90;99.90;;;;;;5033445;28;20026;-64
2023/12/26 06:07:32;;;;;;;6.45;1.83;;;9.90;99.90;;;;;;5033396;28;20025;-64
2023/12/26 06:09:58;;;;;;;3.50;1.85;;;9.80;99.90;;;;;;5033466;28;20039;-64
2023/12/26 06:12:23;;;;;;;7.05;2.30;;;9.90;99.90;;;;;;5033473;28;20030;-64
2023/12/26 06:14:49;;;;;;;3.10;1.75;;;9.80;99.90;;;;;;5033460;28;20037;-64
2023/12/26 06:17:14;;;;;;;6.05;2.05;;;9.80;99.90;;;;;;5033228;28;20021;-64
2023/12/26 06:19:40;;;;;;;5.53;1.95;;;9.80;99.90;;;;;;5033086;28;20052;-64
2023/12/26 06:22:05;;;;;;;4.68;1.90;;;9.80;99.90;;;;;;5031986;28;20076;-64
2023/12/26 06:24:31;;;;;;;4.68;1.80;;;9.80;99.90;;;;;;5033192;28;20026;-64
2023/12/26 06:26:57;;;;;;;9.38;2.50;;;9.70;99.90;;;;;;5033209;28;20035;-63
2023/12/26 06:29:22;;;;;;;8.73;2.58;;;9.70;99.90;;;;;;5032994;28;20025;-64
2023/12/26 06:31:48;;;;;;;5.57;2.28;;;9.90;99.90;;;;;;5033341;28;20037;-63
2023/12/26 06:34:13;;;;;;;7.93;2.25;;;9.90;99.90;;;;;;5033206;28;20454;-63
2023/12/26 06:36:39;;;;;;;8.20;2.13;;;9.80;99.90;;;;;;5032865;28;20091;-64
2023/12/26 06:39:05;;;;;;;8.13;2.40;;;9.90;99.90;;;;;;5033082;28;20112;-63
2023/12/26 06:41:31;;;;;;;8.27;2.10;;;9.70;99.90;;;;;;5032866;28;20055;-64
2023/12/26 06:43:56;;;;;;;5.85;2.08;;;9.70;99.90;;;;;;5031901;28;20025;-63
2023/12/26 06:46:22;;;;;;;5.32;1.85;;;9.60;99.90;;;;;;5033024;28;20072;-64
2023/12/26 06:48:48;;;;;;;7.15;1.70;;;9.70;99.90;;;;;;5032910;28;20025;-64
2023/12/26 06:51:15;;;;;;;10.90;2.28;;;9.80;99.90;;;;;;5032958;28;20025;-65
2023/12/26 06:53:42;;;;;;;10.30;2.55;;;9.70;99.90;;;;;;5033138;28;20364;-65
2023/12/26 06:56:08;;;;;;;6.97;1.83;;;9.70;99.90;;;;;;5032911;28;20021;-64
2023/12/26 06:58:34;;;;;;;11.63;2.13;;;;;;;;;;5034657;28;20037;-64
2023/12/26 07:01:01;;;;;;;9.05;2.17;;;9.70;99.90;;;;;;5036812;28;20057;-64
2023/12/26 07:03:27;;;;;;;6.28;1.30;;;;;;;;;;5036605;28;20384;-64
2023/12/26 07:05:52;;;;;;;7.55;1.90;;;9.60;99.90;;;;;;5036792;28;20080;-65
2023/12/26 07:08:19;;;;;;;1.73;1.35;;;9.50;99.90;;;;;;5036891;28;20502;-64
2023/12/26 07:10:45;;;;;;;8.50;1.80;;;9.40;99.90;;;;;;5036598;28;20028;-64
2023/12/26 07:13:10;;;;;;;5.65;1.70;;;9.40;99.90;;;;;;5036789;28;20017;-64
2023/12/26 07:15:39;;;;;;;4.60;1.65;;;9.30;99.90;;;;;;5036581;28;20026;-64
2023/12/26 07:18:04;;;;;;;7.15;2.10;;;9.30;99.90;;;;;;5036713;28;20029;-64
2023/12/26 07:20:30;;;;;;;5.05;1.70;;;9.30;99.90;;;;;;5036368;28;20054;-64
2023/12/26 07:22:55;;;;;;;5.50;1.92;;;9.20;99.90;;;;;;5036448;28;20031;-65
2023/12/26 07:25:21;;;;;;;11.43;2.30;;;9.20;99.90;;;;;;5036296;28;20392;-64
2023/12/26 07:27:47;;;;;;;8.43;1.95;;;9.20;99.90;;;;;;5036521;28;20357;-65
2023/12/26 07:30:12;;;;;;;15.63;2.97;;;9.20;99.90;;;;;;5036443;28;20386;-64
2023/12/26 07:32:38;;;;;;;4.30;1.60;;;9.20;99.90;;;;;;5036439;28;20035;-65
2023/12/26 07:35:04;;;;;;;10.02;1.60;;;9.30;99.90;;;;;;5036167;28;20022;-65
2023/12/26 07:37:29;;;;;;;7.78;1.67;;;9.20;99.90;;;;;;5036391;28;20087;-64
2023/12/26 07:39:55;;;;;;;12.27;2.15;;;9.20;99.90;;;;;;5036337;28;20025;-65
2023/12/26 07:42:20;;;;;;;12.20;2.40;;;9.80;99.90;;;;;;5035691;28;20083;-64
2023/12/26 07:44:46;;;;;;;9.25;2.33;;;8.60;99.90;;;;;;5036194;28;20033;-64
2023/12/26 07:47:12;;;;;;;9.07;1.90;;;9.00;99.90;;;;;;5036110;28;20036;-64
2023/12/26 07:49:37;;;;;;;8.57;1.50;;;9.00;99.90;;;;;;5035874;28;20099;-64
2023/12/26 07:52:03;;;;;;;10.15;1.85;;;9.00;99.90;;;;;;5036119;28;20029;-64
2023/12/26 07:54:29;;;;;;;7.47;1.65;;;9.00;99.90;;;;;;5036077;28;20076;-65
2023/12/26 07:56:56;;;;;;;5.40;1.77;;;9.00;99.90;;;;;;5035860;28;20033;-66
2023/12/26 07:59:22;;;;;;;8.43;1.60;;;9.00;99.90;;;;;;5035791;28;20032;-64
2023/12/26 08:01:47;;;;;;;4.53;1.55;;;9.10;99.90;;;;;;5035776;28;20025;-64
2023/12/26 08:04:15;;;;;;;9.75;1.85;;;;;;;;;;5035623;28;20037;-64
2023/12/26 08:06:42;;;;;;;9.18;1.85;;;9.20;99.90;;;;;;5035522;28;20036;-64
2023/12/26 08:09:11;;;;;;;7.15;1.48;;;9.20;99.90;;;;;;5035662;28;20080;-64
2023/12/26 08:11:37;;;;;;;3.95;1.45;;;9.20;99.90;;;;;;5035103;28;20071;-64
2023/12/26 08:14:03;;;;;;;9.65;1.90;;;;;;;;;;5035684;28;20030;-64
2023/12/26 08:16:29;;;;;;;7.05;1.88;;;;;;;;;;5035527;28;20395;-64
2023/12/26 08:18:57;;;;;;;7.03;1.30;;;9.20;99.90;;;;;;5035411;28;20053;-64
2023/12/26 08:21:22;;;;;;;11.27;2.35;;;9.50;99.90;;;;;;5035015;28;20124;-64
2023/12/26 08:23:48;;;;;;;9.90;1.60;;;9.10;99.90;;;;;;5034029;28;20108;-65
2023/12/26 08:26:14;;;;;;;9.52;1.60;;;9.00;99.90;;;;;;5035250;28;20025;-64
2023/12/26 08:28:41;;;;;;;7.93;1.30;;;;;;;;;;5035211;28;20406;-65
2023/12/26 08:31:07;;;;;;;9.52;1.95;;;;;;;;;;5035150;28;20022;-64
2023/12/26 08:33:35;;;;;;;9.65;2.25;;;9.00;99.90;;;;;;5035152;28;20040;-64
2023/12/26 08:36:01;;;;;;;10.38;2.42;;;9.10;99.90;;;;;;5035274;28;20037;-65
2023/12/26 08:38:28;;;;;;;8.38;1.95;;;8.90;99.90;;;;;;5035312;28;20044;-65
2023/12/26 08:40:54;;;;;;;12.18;2.55;;;8.90;99.90;;;;;;5035041;28;20040;-64
2023/12/26 08:43:19;;;;;;;7.55;1.55;;;9.00;99.90;;;;;;5034830;28;20026;-64
2023/12/26 08:45:45;;;;;;;10.20;2.35;;;;;;;;;;5035038;28;20053;-65
2023/12/26 08:48:11;;;;;;;5.47;1.77;;;8.80;99.90;;;;;;5034831;28;20033;-64
2023/12/26 08:50:37;;;;;;;9.70;1.90;;;8.90;99.90;;;;;;5034808;28;20033;-64
2023/12/26 08:53:03;;;;;;;7.95;1.63;;;;;;;;;;5033576;28;20114;-65
2023/12/26 08:55:29;;;;;;;11.63;2.55;;;;;;;;;;5034686;28;20373;-65
2023/12/26 08:57:55;;;;;;;12.70;1.88;;;;;;;;;;5034844;28;20033;-65
2023/12/26 09:00:21;;;;;;;11.68;2.20;;;9.10;99.90;;;;;;5034639;28;20487;-65
2023/12/26 09:02:47;;;;;;;12.13;2.35;;;9.60;99.90;;;;;;5034685;28;20064;-65
2023/12/26 09:05:13;;;;;;;9.75;1.80;;;;;;;;;;5034458;28;20021;-65
2023/12/26 09:07:40;;;;;;;13.38;2.65;;;9.90;99.90;;;;;;5034469;28;20060;-64
2023/12/26 09:10:06;;;;;;;11.43;1.85;;;10.20;99.90;;;;;;5034437;28;20060;-65
2023/12/26 09:12:32;;;;;;;8.77;1.60;;;10.70;90.70;;;;;;5033183;28;20021;-65
2023/12/26 09:14:58;;;;;;;10.98;1.85;;;10.80;85.60;;;;;;5034187;28;20475;-64
2023/12/26 09:17:23;;;;;;;7.20;1.77;;;10.80;36.70;;;;;;5034215;28;20040;-65
2023/12/26 09:19:49;;;;;;;6.60;1.52;;;11.20;1.00;;;;;;5033958;28;20052;-65
2023/12/26 09:22:15;;;;;;;11.32;1.77;;;10.60;22.60;;;;;;5033137;28;20034;-65
2023/12/26 09:24:43;;;;;;;9.07;2.30;;;10.00;36.80;;;;;;5034213;28;20030;-65
2023/12/26 09:27:08;;;;;;;8.60;1.73;;;9.90;64.60;;;;;;5032906;28;20021;-66
2023/12/26 09:29:34;;;;;;;11.85;2.15;;;10.60;32.00;;;;;;5034042;28;20079;-66
2023/12/26 09:31:59;;;;;;;9.07;1.95;;;11.10;1.00;;;;;;5033855;28;20468;-65
2023/12/26 09:34:25;;;;;;;9.35;1.70;;;10.70;3.40;;;;;;5034243;28;20499;-65
2023/12/26 09:36:51;;;;;;;4.15;1.58;;;10.30;15.70;;;;;;5033942;28;20445;-65
2023/12/26 09:39:16;;;;;;;16.55;1.75;;;9.90;43.50;;;;;;5033890;28;20029;-66
2023/12/26 09:41:43;;;;;;;10.45;1.88;;;9.80;72.90;;;;;;5033669;28;20084;-65
2023/12/26 09:44:10;;;;;;;9.48;1.88;;;9.90;67.30;;;;;;5033850;28;20103;-65
2023/12/26 09:46:37;;;;;;;8.15;1.80;;;10.60;7.20;;;;;;5034056;28;20022;-66
2023/12/26 09:49:03;;;;;;;6.38;1.77;;;11.10;1.00;;;;;;5033931;28;20383;-65
2023/12/26 09:51:32;;;;;;;10.63;2.00;;;10.90;1.00;;;;;;5033711;28;20017;-66
2023/12/26 09:54:00;;;;;;;10.90;1.98;;;10.60;1.00;;;;;;5033589;28;20499;-65
2023/12/26 09:56:27;;;;;;;9.45;2.00;;;10.80;1.00;;;;;;5033803;28;20053;-65
2023/12/26 09:58:54;;;;;;;8.25;1.58;;;11.50;1.00;;;;;;5033502;28;20483;-65
2023/12/26 10:01:21;;;;;;;10.75;2.03;;;11.20;1.00;;;;;;5033388;28;20025;-65
2023/12/26 10:03:47;;;;;;;11.23;2.33;;;10.60;1.00;;;;;;5033709;28;20040;-65
2023/12/26 10:06:14;;;;;;;8.95;2.25;;;10.30;1.00;;;;;;5033521;28;20476;-65
2023/12/26 10:08:42;;;;;;;8.70;1.95;;;10.10;1.60;;;;;;5033582;28;20029;-66
2023/12/26 10:11:13;;;;;;;10.02;1.95;;;;;;;;;;5033320;28;20021;-66
2023/12/26 10:13:43;;;;;;;9.25;2.30;;;9.90;6.60;;;;;;5033292;28;20503;-65
2023/12/26 10:16:09;;;;;;;13.10;2.30;;;9.80;12.90;;;;;;5033343;28;20025;-65
2023/12/26 10:18:34;;;;;;;9.40;1.90;;;9.80;16.70;;;;;;5015783;28;20476;-65
2023/12/26 10:21:00;;;;;;;11.23;2.10;;;9.70;56.80;;;;;;5033114;28;20423;-66
2023/12/26 10:23:25;;;;;;;10.80;1.75;;;9.70;37.00;;;;;;5033276;28;20458;-65
2023/12/26 10:25:51;;;;;;;7.10;1.48;;;9.80;38.20;;;;;;5033297;28;20036;-66
2023/12/26 10:28:17;;;;;;;8.30;2.58;;;9.70;46.10;;;;;;5033314;28;20040;-66
2023/12/26 10:30:42;;;;;;;11.10;2.22;;;9.80;45.00;;;;;;5033090;28;20036;-66
2023/12/26 10:33:08;;;;;;;13.43;2.03;;;9.80;18.60;;;;;;5032900;28;20458;-66
2023/12/26 10:35:33;;;;;;;11.38;2.03;;;9.80;56.10;;;;;;5033113;28;20361;-66
2023/12/26 10:37:59;;;;;;;6.85;1.88;;;9.80;28.90;;;;;;5033244;28;20040;-65
2023/12/26 10:40:25;;;;;;;8.52;1.45;;;9.90;32.70;;;;;;5032998;28;20119;-65
2023/12/26 10:42:51;;;;;;;9.23;2.13;;;10.10;45.70;;;;;;5032965;28;20029;-65
2023/12/26 10:45:20;;;;;;;10.38;2.30;;;10.70;10.50;;;;;;5031792;28;20029;-65
2023/12/26 10:47:49;;;;;;;9.82;2.40;;;11.00;1.00;;;;;;5031921;28;20104;-66
2023/12/26 10:50:19;;;;;;;9.30;2.10;;;11.20;1.00;;;;;;5033077;28;20036;-65
2023/12/26 10:53:09;;;;;;;11.73;2.47;;;11.70;1.00;;;;;;5031759;28;20100;-65
2023/12/26 10:55:37;;;;;;;12.70;2.10;;;11.70;1.00;;;;;;5031661;28;20025;-65
2023/12/26 10:58:24;;;;;;;13.48;2.88;;;11.60;1.00;;;;;;5032954;28;20505;-65
2023/12/26 13:52:20;;;;;;;14.75;2.47;;;;;;;;;;5033387;28;20036;-66
2023/12/26 13:54:48;;;;;;;10.75;2.83;;;;;;;;;;5033480;28;20033;-66
2023/12/26 13:57:15;;;;;;;19.42;2.67;;;;;;;;;;5033740;28;20124;-66
2023/12/26 13:59:42;;;;;;;11.98;2.47;;;;;;;;;;5033588;28;20531;-66
2023/12/26 14:02:11;;;;;;;19.85;2.95;;;;;;;;;;5033643;28;20128;-66
2023/12/26 14:04:58;;;;;;;11.25;2.72;;;;;;;;;;5033450;28;20055;-67
2023/12/26 14:07:25;;;;;;;7.95;2.63;;;;;;;;;;5033084;28;20037;-66
2023/12/26 14:09:52;;;;;;;12.85;2.50;;;;;;;;;;5033276;28;20112;-66
2023/12/26 14:12:20;;;;;;;20.35;3.17;;;;;;;;;;5033329;28;20199;-66
2023/12/26 14:14:49;;;;;;;10.75;2.42;;;;;;;;;;5033329;28;20031;-66
2023/12/26 14:17:16;;;;;;;11.95;3.13;;;;;;;;;;5033264;28;20022;-65
2023/12/26 14:19:43;;;;;;;11.55;2.85;;;;;;;;;;5033277;28;20510;-65
2023/12/26 14:22:10;;;;;;;12.13;2.50;;;;;;;;;;5033215;28;20083;-65
2023/12/26 14:24:57;;;;;;;14.48;2.75;;;;;;;;;;5032978;28;20025;-65
2023/12/26 14:27:45;;;;;;;12.93;2.75;;;;;;;;;;5033287;28;20121;-65
2023/12/26 14:30:34;;;;;;;15.77;3.20;;;;;;;;;;5033339;28;20522;-65
2023/12/26 14:33:22;;;;;;;17.10;2.53;;;;;;;;;;5033048;28;20361;-66
2023/12/26 14:36:11;;;;;;;11.85;2.53;;;;;;;;;;5032738;28;20025;-66
2023/12/26 14:39:03;;;;;;;15.05;2.70;;;;;;;;;;5033104;28;20107;-66
2023/12/26 14:41:32;;;;;;;15.48;3.28;;;;;;;;;;5032970;28;20100;-66
2023/12/26 14:44:03;;;;;;;16.50;2.88;;;;;;;;;;5032895;28;20476;-65
2023/12/26 14:46:34;;;;;;;13.55;3.38;;;;;;;;;;5032981;28;20105;-65
2023/12/26 14:49:05;;;;;;;15.43;3.53;;;;;;;;;;5032893;28;20032;-65
2023/12/26 14:51:38;;;;;;;18.02;3.63;;;;;;;;;;5033006;28;20180;-66
2023/12/26 14:54:07;;;;;;;13.13;3.22;;;;;;;;;;5033147;28;20113;-65
2023/12/26 14:56:36;;;;;;;16.02;3.13;;;;;;;;;;5033106;28;20030;-67
2023/12/26 14:59:05;;;;;;;11.68;2.92;;;;;;;;;;5032870;28;20054;-66
2023/12/26 15:01:34;;;;;;;15.32;3.33;;;;;;;;;;5032593;28;20061;-66
2023/12/26 15:04:01;;;;;;;14.45;3.35;;;;;;;;;;5032815;28;20112;-66
2023/12/26 15:06:30;;;;;;;14.95;3.00;;;;;;;;;;5032725;28;20479;-66
2023/12/26 15:08:59;;;;;;;15.48;3.05;;;;;;;;;;5032935;28;20038;-65
2023/12/26 15:11:29;;;;;;;13.20;3.25;;;;;;;;;;5032920;28;20025;-67
2023/12/26 15:14:00;;;;;;;10.50;2.38;;;;;;;;;;5032743;28;20018;-67
2023/12/26 15:16:29;;;;;;;15.73;2.58;;;;;;;;;;5032946;28;20076;-67
2023/12/26 15:19:01;;;;;;;14.43;2.85;;;;;;;;;;5032637;28;20029;-66
2023/12/26 15:21:30;;;;;;;12.43;2.72;;;;;;;;;;5035575;28;20099;-66
2023/12/26 15:23:58;;;;;;;15.73;3.10;;;;;;;;;;5036443;28;20486;-66
2023/12/26 15:26:27;;;;;;;13.77;3.30;;;;;;;;;;5036282;28;20025;-66
2023/12/26 15:28:56;;;;;;;10.05;2.55;;;;;;;;;;5036180;28;20025;-65
2023/12/26 15:31:25;;;;;;;15.32;3.22;;;;;;;;;;5036060;28;20524;-66
2023/12/26 15:33:59;;;;;;;13.82;3.03;;;;;;;;;;5036450;28;20451;-66
2023/12/26 15:36:29;;;;;;;;;;;;;;;;;;5036427;28;20400;-66
2023/12/26 15:39:04;;;;;;;14.38;2.50;;;;;;;;;;5036057;28;19988;-65
2023/12/26 15:41:35;;;;;;;14.35;3.10;;;;;;;;;;5036167;28;20071;-68
2023/12/26 15:44:10;;;;;;;10.18;3.03;;;;;;;;;;5036176;28;20032;-67
2023/12/26 15:46:35;;;;;;;13.85;2.72;;;9.20;69.40;;;;;;5036035;28;20036;-68
2023/12/26 15:49:01;;;;;;;14.30;3.00;;;9.10;85.50;;;;;;5036030;28;20026;-68
2023/12/26 15:51:27;;;;;;;12.52;2.67;;;9.00;82.60;;;;;;5036036;28;20037;-68
2023/12/26 15:53:54;;;;;;;15.27;2.65;;;;;;;;;;5036013;28;20030;-68
2023/12/26 15:56:23;;;;;;;13.77;2.58;;;;;;;;;;5035997;28;20517;-67
2023/12/26 15:58:51;;;;;;;18.50;3.33;;;;;;;;;;5035980;28;20475;-67
2023/12/26 16:01:20;;;;;;;9.93;3.33;;;;;;;;;;5035926;28;20056;-68
2023/12/26 16:03:48;;;;;;;11.82;2.75;;;;;;;;;;5035885;28;20479;-68